Time;durP1;ratioP1;P1;durP2;ratioP2;P2;SDS_P1;SDS_P2;PMS_P1;PMS_P2;Temp;Humidity;BMP_temperature;BMP_pressure;BME280_temperature;BME280_humidity;BME280_pressure;Samples;Min_cycle;Max_cycle;Signal;HPM_P1;HPM_P2
2021/12/15 00:01:51;;;;;;;77.53;53.80;;;18.40;59.20;;;;;;4926536;28;90389;-74
2021/12/15 00:04:17;;;;;;;76.35;53.30;;;18.30;59.10;;;;;;4921605;28;95282;-74
2021/12/15 00:06:42;;;;;;;78.90;53.72;;;18.30;59.20;;;;;;4930197;28;93019;-74
2021/12/15 00:09:11;;;;;;;77.85;54.13;;;18.30;59.20;;;;;;4934338;28;91054;-74
2021/12/15 00:11:38;;;;;;;78.22;54.55;;;18.30;59.30;;;;;;4929034;28;90996;-74
2021/12/15 00:14:18;;;;;;;79.10;54.35;;;18.30;59.20;;;;;;4929773;28;91686;-73
2021/12/15 00:16:47;;;;;;;75.83;53.27;;;18.20;59.30;;;;;;4931738;28;91479;-74
2021/12/15 00:19:12;;;;;;;77.50;53.97;;;18.20;59.40;;;;;;4928521;28;90831;-74
2021/12/15 00:21:39;;;;;;;77.65;54.15;;;18.20;59.40;;;;;;4932264;28;89818;-74
2021/12/15 00:24:05;;;;;;;76.68;53.67;;;18.20;59.30;;;;;;4932729;28;91131;-74
2021/12/15 00:26:32;;;;;;;76.63;53.55;;;18.20;59.50;;;;;;4931942;28;92109;-74
2021/12/15 00:29:13;;;;;;;75.02;52.49;;;18.20;59.50;;;;;;4302943;28;10001082;-73
2021/12/15 00:31:39;;;;;;;77.88;54.45;;;18.20;59.50;;;;;;1324648;28;10092901;-73
2021/12/15 00:34:07;;;;;;;77.93;54.28;;;18.10;59.30;;;;;;4936133;28;91103;-73
2021/12/15 00:36:33;;;;;;;78.05;54.10;;;18.20;59.50;;;;;;4934751;28;92190;-74
2021/12/15 00:38:59;;;;;;;79.47;53.95;;;18.20;59.50;;;;;;4934194;28;90453;-75
2021/12/15 00:41:26;;;;;;;77.30;54.15;;;18.10;60.00;;;;;;4942928;28;90344;-74
2021/12/15 00:43:51;;;;;;;77.47;54.17;;;18.10;59.40;;;;;;4936076;28;89828;-74
2021/12/15 00:46:17;;;;;;;79.53;54.33;;;18.10;59.50;;;;;;4930003;28;91968;-74
2021/12/15 00:48:43;;;;;;;76.72;53.58;;;18.10;59.60;;;;;;4932068;28;96557;-73
2021/12/15 00:51:09;;;;;;;77.53;53.35;;;18.10;59.50;;;;;;4933991;28;89072;-74
2021/12/15 00:53:35;;;;;;;76.82;53.33;;;18.10;59.50;;;;;;4939080;28;89913;-74
2021/12/15 00:56:00;;;;;;;77.30;53.40;;;18.00;60.00;;;;;;4939647;28;90250;-73
2021/12/15 00:58:26;;;;;;;76.30;53.75;;;18.10;59.70;;;;;;4932109;28;92980;-73
2021/12/15 01:00:59;;;;;;;77.53;53.63;;;18.10;59.60;;;;;;4930822;28;90867;-73
2021/12/15 01:03:25;;;;;;;77.85;54.22;;;18.00;59.50;;;;;;4934585;28;90424;-74
2021/12/15 01:05:56;;;;;;;77.38;53.40;;;18.00;59.50;;;;;;4929409;28;90964;-74
2021/12/15 01:08:24;;;;;;;76.17;53.47;;;18.10;59.70;;;;;;4935035;28;89562;-73
2021/12/15 01:21:35;;;;;;;77.20;53.17;;;18.00;59.70;;;;;;4934419;28;89892;-73
2021/12/15 01:24:01;;;;;;;77.03;54.03;;;18.00;59.70;;;;;;4935955;28;92358;-74
2021/12/15 01:26:27;;;;;;;75.45;53.25;;;18.00;59.70;;;;;;4935982;28;89644;-74
2021/12/15 01:28:53;;;;;;;75.90;52.85;;;18.00;59.70;;;;;;4936879;28;90200;-74
2021/12/15 01:31:18;;;;;;;75.85;53.15;;;17.90;59.70;;;;;;4932596;28;90141;-73
2021/12/15 01:33:44;;;;;;;75.45;53.00;;;18.00;59.70;;;;;;4935510;28;95715;-74
2021/12/15 01:36:11;;;;;;;76.28;53.55;;;17.90;59.60;;;;;;4935302;28;89714;-74
2021/12/15 01:38:39;;;;;;;77.18;53.40;;;17.90;59.70;;;;;;4940919;28;90499;-74
2021/12/15 01:41:07;;;;;;;76.22;53.10;;;17.90;59.80;;;;;;4931375;28;91630;-74
2021/12/15 01:49:09;;;;;;;76.15;53.13;;;17.90;59.90;;;;;;4925600;28;91193;-74
2021/12/15 01:51:35;;;;;;;75.78;53.13;;;17.90;59.80;;;;;;4932036;28;90155;-74
2021/12/15 01:54:01;;;;;;;78.13;53.05;;;17.90;59.80;;;;;;4939893;28;90911;-75
2021/12/15 01:56:28;;;;;;;75.40;53.13;;;17.90;59.80;;;;;;4933474;28;92211;-74
2021/12/15 01:58:54;;;;;;;77.00;53.38;;;17.80;59.90;;;;;;4932742;28;89817;-74
2021/12/15 02:01:20;;;;;;;75.93;53.35;;;17.90;60.00;;;;;;4938026;28;91147;-74
2021/12/15 02:03:46;;;;;;;78.03;53.72;;;17.80;59.90;;;;;;4931931;28;89892;-75
2021/12/15 02:06:12;;;;;;;76.18;53.42;;;17.90;60.00;;;;;;4937181;28;89936;-74
2021/12/15 02:08:39;;;;;;;76.40;53.70;;;17.80;60.00;;;;;;4937825;28;89580;-74
2021/12/15 02:11:06;;;;;;;75.18;52.50;;;17.90;60.00;;;;;;4929224;28;93215;-74
2021/12/15 02:13:32;;;;;;;75.35;53.10;;;17.80;59.90;;;;;;4939776;28;92447;-74
2021/12/15 02:16:01;;;;;;;76.90;54.50;;;17.80;60.00;;;;;;4927616;28;90931;-74
2021/12/15 02:18:31;;;;;;;76.43;53.33;;;17.80;60.00;;;;;;4925194;28;89992;-74
2021/12/15 02:21:07;;;;;;;78.35;54.15;;;17.80;60.00;;;;;;4939624;28;91404;-74
2021/12/15 02:23:39;;;;;;;76.93;54.08;;;17.80;60.10;;;;;;4929313;28;92599;-74
2021/12/15 02:26:13;;;;;;;73.30;51.83;;;17.80;60.10;;;;;;4940632;28;90500;-74
2021/12/15 02:28:40;;;;;;;76.32;53.60;;;17.80;60.10;;;;;;4933220;28;89889;-73
2021/12/15 02:33:57;;;;;;;76.25;54.03;;;17.70;60.10;;;;;;4935860;28;89513;-74
2021/12/15 02:39:10;;;;;;;75.97;53.20;;;17.80;60.10;;;;;;4937733;28;91385;-73
2021/12/15 02:41:39;;;;;;;76.75;53.35;;;17.80;60.10;;;;;;4938267;28;90765;-73
2021/12/15 02:44:08;;;;;;;76.97;53.78;;;17.80;60.10;;;;;;4934408;28;90937;-73
2021/12/15 02:46:36;;;;;;;77.75;54.13;;;17.70;60.00;;;;;;4932170;28;90355;-74
2021/12/15 02:49:04;;;;;;;78.57;54.40;;;17.70;60.10;;;;;;4925594;28;90222;-73
2021/12/15 02:51:30;;;;;;;76.47;53.20;;;17.70;60.10;;;;;;4933153;28;91910;-73
2021/12/15 02:53:58;;;;;;;74.65;52.67;;;17.70;60.10;;;;;;4933801;28;91392;-74
2021/12/15 02:56:23;;;;;;;75.82;52.58;;;17.70;60.10;;;;;;4929884;28;89739;-73
2021/12/15 02:58:55;;;;;;;74.90;52.90;;;17.70;60.30;;;;;;4928133;28;91440;-75
2021/12/15 03:02:41;;;;;;;78.93;54.28;;;17.70;60.30;;;;;;4931668;28;90722;-74
2021/12/15 03:04:30;;;;;;;75.72;53.58;;;17.70;60.20;;;;;;4931484;28;91730;-74
2021/12/15 03:07:12;;;;;;;76.90;53.40;;;17.70;60.10;;;;;;4931131;28;90088;-74
2021/12/15 03:18:14;;;;;;;75.93;52.83;;;17.70;60.20;;;;;;4926770;28;91489;-74
2021/12/15 03:20:52;;;;;;;76.30;53.83;;;17.70;60.20;;;;;;4932820;28;90879;-74
2021/12/15 03:23:26;;;;;;;74.97;52.80;;;17.70;60.20;;;;;;4934576;28;90687;-75
2021/12/15 03:25:53;;;;;;;75.97;53.08;;;17.70;60.20;;;;;;4937160;28;90080;-74
2021/12/15 03:36:52;;;;;;;76.68;54.00;;;17.60;60.30;;;;;;4935970;28;89554;-73
2021/12/15 03:39:11;;;;;;;76.45;53.30;;;17.60;60.30;;;;;;4944401;28;90763;-73
2021/12/15 03:41:37;;;;;;;77.38;53.78;;;17.70;60.30;;;;;;4933038;28;91144;-74
2021/12/15 03:44:06;;;;;;;74.35;52.63;;;17.60;60.20;;;;;;4935962;28;92227;-75
2021/12/15 03:46:33;;;;;;;75.38;52.90;;;17.60;60.30;;;;;;4931526;28;91871;-75
2021/12/15 03:48:58;;;;;;;76.00;53.53;;;17.60;60.30;;;;;;4927776;28;89481;-75
2021/12/15 03:51:25;;;;;;;75.20;53.17;;;17.60;60.40;;;;;;4932660;28;90192;-75
2021/12/15 03:53:50;;;;;;;76.43;53.90;;;17.60;60.40;;;;;;4930845;28;92228;-75
2021/12/15 03:56:16;;;;;;;74.80;52.88;;;17.60;60.20;;;;;;4939175;28;91041;-74
2021/12/15 03:58:44;;;;;;;76.28;53.05;;;17.60;60.30;;;;;;4936929;28;89834;-74
2021/12/15 04:01:14;;;;;;;75.32;53.00;;;17.60;60.30;;;;;;4935036;28;90190;-75
2021/12/15 04:03:43;;;;;;;73.82;52.78;;;17.60;60.50;;;;;;4936731;28;91815;-74
2021/12/15 04:06:14;;;;;;;75.85;53.25;;;17.60;60.30;;;;;;4942985;28;89979;-74
2021/12/15 04:08:40;;;;;;;75.20;53.13;;;17.60;60.40;;;;;;4936965;28;90229;-75
2021/12/15 04:11:10;;;;;;;75.75;52.92;;;17.50;60.30;;;;;;4934928;28;89719;-75
2021/12/15 04:13:37;;;;;;;76.70;54.28;;;17.60;60.40;;;;;;4932334;28;89652;-74
2021/12/15 04:16:08;;;;;;;75.72;52.85;;;17.50;60.40;;;;;;4925975;28;91621;-74
2021/12/15 04:18:36;;;;;;;75.93;53.33;;;17.60;60.30;;;;;;4934559;28;89906;-75
2021/12/15 04:21:04;;;;;;;75.57;53.15;;;17.50;60.40;;;;;;4934549;28;91545;-74
2021/12/15 04:23:31;;;;;;;75.35;52.88;;;17.50;60.40;;;;;;4938723;28;94480;-74
2021/12/15 04:26:00;;;;;;;74.93;52.75;;;17.50;60.40;;;;;;4929341;28;92084;-75
2021/12/15 04:28:34;;;;;;;75.80;53.88;;;17.50;60.40;;;;;;4930852;28;90070;-75
2021/12/15 04:31:06;;;;;;;75.60;53.20;;;17.50;60.40;;;;;;4932542;28;89968;-75
2021/12/15 04:33:41;;;;;;;75.70;53.50;;;17.50;60.50;;;;;;4926691;28;91197;-75
2021/12/15 04:36:09;;;;;;;76.18;53.03;;;17.50;60.60;;;;;;4933111;28;89856;-75
2021/12/15 04:38:36;;;;;;;74.80;52.65;;;17.50;60.50;;;;;;4929385;28;94360;-75
2021/12/15 04:41:05;;;;;;;77.47;53.53;;;17.50;60.50;;;;;;4934048;28;91157;-74
2021/12/15 04:43:34;;;;;;;76.22;53.65;;;17.50;60.50;;;;;;4932495;28;90998;-74
2021/12/15 04:46:00;;;;;;;74.10;52.35;;;17.50;60.60;;;;;;4926216;28;96919;-75
2021/12/15 04:48:26;;;;;;;76.60;53.22;;;17.50;61.30;;;;;;4928221;28;92203;-74
2021/12/15 04:50:52;;;;;;;74.75;52.55;;;17.50;60.60;;;;;;4930312;28;89455;-75
2021/12/15 04:53:18;;;;;;;74.47;52.42;;;17.50;60.60;;;;;;4929789;28;90852;-74
2021/12/15 04:55:43;;;;;;;75.68;52.90;;;17.50;60.60;;;;;;4932796;28;97356;-74
2021/12/15 04:58:11;;;;;;;73.07;51.70;;;17.50;60.50;;;;;;4929935;28;89519;-75
2021/12/15 05:00:43;;;;;;;75.53;52.72;;;17.50;60.70;;;;;;4926204;28;92513;-75
2021/12/15 05:03:09;;;;;;;74.20;52.42;;;17.60;60.90;;;;;;4927613;28;89529;-74
2021/12/15 05:05:35;;;;;;;75.55;52.47;;;17.70;61.10;;;;;;4931541;28;90822;-74
2021/12/15 05:08:02;;;;;;;74.07;52.38;;;17.80;60.50;;;;;;4929515;28;89916;-73
2021/12/15 05:10:28;;;;;;;75.32;52.97;;;18.00;60.20;;;;;;4929224;28;90903;-74
2021/12/15 05:12:54;;;;;;;76.85;53.50;;;18.10;59.90;;;;;;4929643;28;90939;-74
2021/12/15 05:15:20;;;;;;;74.85;52.22;;;18.20;59.80;;;;;;4930683;28;91965;-74
2021/12/15 05:17:46;;;;;;;74.78;52.65;;;18.40;59.40;;;;;;4925577;28;90903;-74
2021/12/15 05:20:13;;;;;;;75.18;52.70;;;18.60;59.10;;;;;;4930724;28;95904;-74
2021/12/15 05:22:39;;;;;;;75.85;52.63;;;18.70;58.80;;;;;;4927846;28;92424;-73
2021/12/15 05:25:07;;;;;;;76.50;53.83;;;18.80;58.60;;;;;;4929994;28;91058;-74
2021/12/15 05:27:33;;;;;;;76.72;53.40;;;18.90;58.20;;;;;;4924864;28;89440;-74
2021/12/15 05:29:59;;;;;;;74.75;52.13;;;19.10;58.00;;;;;;4932189;28;91445;-75
2021/12/15 05:32:25;;;;;;;75.10;52.97;;;19.20;57.70;;;;;;4918843;28;92031;-74
2021/12/15 05:34:53;;;;;;;75.22;52.70;;;19.30;57.50;;;;;;4926451;28;91524;-73
2021/12/15 05:37:24;;;;;;;77.25;53.47;;;19.40;57.30;;;;;;4927555;28;91142;-73
2021/12/15 05:39:52;;;;;;;76.70;53.05;;;19.40;57.00;;;;;;4931362;28;89555;-74
2021/12/15 05:42:19;;;;;;;74.85;52.55;;;19.50;57.00;;;;;;4930784;28;90500;-74
2021/12/15 05:44:49;;;;;;;76.72;53.08;;;19.60;56.80;;;;;;4930073;28;94350;-73
2021/12/15 05:47:16;;;;;;;75.88;52.58;;;19.70;56.60;;;;;;4922351;28;90321;-73
2021/12/15 05:49:41;;;;;;;76.22;52.97;;;19.70;56.40;;;;;;4923220;28;89545;-73
2021/12/15 05:52:08;;;;;;;74.47;52.00;;;19.80;56.50;;;;;;4927974;28;90211;-73
2021/12/15 05:54:34;;;;;;;75.80;53.10;;;19.80;56.30;;;;;;4926754;28;89826;-74
2021/12/15 05:57:00;;;;;;;75.57;52.95;;;19.80;56.20;;;;;;4929229;28;90605;-74
2021/12/15 05:59:27;;;;;;;75.80;53.53;;;19.90;56.10;;;;;;4918866;28;92399;-74
2021/12/15 06:01:53;;;;;;;75.93;52.72;;;19.90;56.00;;;;;;4921688;28;89831;-73
2021/12/15 06:04:19;;;;;;;76.25;52.90;;;19.90;56.00;;;;;;4925038;28;90273;-74
2021/12/15 06:06:44;;;;;;;77.45;53.17;;;19.90;55.90;;;;;;4924861;28;91173;-74
2021/12/15 06:09:11;;;;;;;76.75;53.50;;;19.90;56.10;;;;;;4919230;28;90087;-75
2021/12/15 06:11:37;;;;;;;76.00;53.05;;;19.90;56.00;;;;;;4922834;28;90983;-74
2021/12/15 06:14:04;;;;;;;78.20;52.85;;;19.90;55.80;;;;;;4920154;28;91665;-75
2021/12/15 06:16:30;;;;;;;83.43;54.20;;;19.90;56.30;;;;;;4922731;28;89298;-75
2021/12/15 06:18:55;;;;;;;81.30;54.85;;;19.90;56.80;;;;;;4925987;28;96114;-75
2021/12/15 06:21:22;;;;;;;80.30;54.00;;;20.00;57.50;;;;;;4924255;28;90737;-74
2021/12/15 06:23:48;;;;;;;82.13;54.50;;;20.00;57.80;;;;;;4924482;28;92310;-74
2021/12/15 06:26:15;;;;;;;80.85;54.03;;;20.00;57.80;;;;;;4918523;28;91873;-79
2021/12/15 06:28:41;;;;;;;82.95;54.75;;;20.00;57.80;;;;;;4908125;28;90652;-78
2021/12/15 06:31:10;;;;;;;79.65;53.97;;;20.00;58.00;;;;;;4918364;28;91169;-79
2021/12/15 06:33:39;;;;;;;82.13;54.22;;;20.20;57.90;;;;;;4923702;28;90156;-79
2021/12/15 06:36:06;;;;;;;82.93;54.60;;;20.30;57.50;;;;;;4905636;28;90368;-78
2021/12/15 06:38:38;;;;;;;84.10;54.05;;;20.30;57.10;;;;;;4905424;28;90396;-79
2021/12/15 06:41:06;;;;;;;80.80;54.25;;;20.30;56.90;;;;;;4894741;28;93008;-77
2021/12/15 06:43:33;;;;;;;80.35;54.28;;;20.20;57.30;;;;;;4897501;28;91567;-77
2021/12/15 06:59:40;;;;;;;81.32;53.85;;;20.10;57.00;;;;;;4910958;28;90754;-78
2021/12/15 07:02:07;;;;;;;82.43;54.65;;;20.00;57.10;;;;;;4911527;28;91614;-77
2021/12/15 07:04:32;;;;;;;81.90;54.05;;;20.00;57.10;;;;;;4900098;28;90433;-78
2021/12/15 07:06:58;;;;;;;84.40;54.63;;;20.00;57.10;;;;;;4905400;28;90410;-77
2021/12/15 07:09:24;;;;;;;79.93;54.45;;;19.90;57.20;;;;;;4909328;28;92146;-77
2021/12/15 07:11:52;;;;;;;82.00;54.47;;;19.90;57.60;;;;;;4902003;28;91277;-78
2021/12/15 07:14:19;;;;;;;81.40;54.42;;;19.90;58.10;;;;;;4905149;28;90977;-77
2021/12/15 07:16:48;;;;;;;83.25;54.92;;;19.90;58.40;;;;;;4899495;28;90391;-78
2021/12/15 07:19:32;;;;;;;83.40;54.60;;;19.80;58.40;;;;;;4907131;28;90183;-77
2021/12/15 07:22:16;;;;;;;84.13;54.40;;;19.90;58.70;;;;;;4910548;28;91251;-77
2021/12/15 07:24:42;;;;;;;80.22;54.30;;;19.90;58.60;;;;;;4908247;28;91038;-77
2021/12/15 07:27:08;;;;;;;79.85;54.15;;;19.90;58.60;;;;;;4911671;28;91362;-77
2021/12/15 07:29:35;;;;;;;82.25;55.05;;;19.90;58.40;;;;;;4915416;28;89475;-78
2021/12/15 07:32:03;;;;;;;80.82;54.65;;;20.00;58.30;;;;;;4920077;28;90694;-77
2021/12/15 07:34:28;;;;;;;83.50;54.83;;;20.00;58.40;;;;;;4917880;28;90179;-75
2021/12/15 07:36:54;;;;;;;83.68;54.25;;;20.00;58.80;;;;;;4919338;28;91110;-75
2021/12/15 07:39:20;;;;;;;83.82;54.53;;;20.00;58.30;;;;;;4917927;28;92464;-77
2021/12/15 07:42:02;;;;;;;84.43;54.05;;;20.00;58.30;;;;;;4919382;28;90829;-76
2021/12/15 07:44:28;;;;;;;80.38;53.88;;;20.10;58.40;;;;;;4922600;28;90479;-76
2021/12/15 07:46:54;;;;;;;82.10;54.70;;;20.10;58.80;;;;;;4925091;28;90962;-74
2021/12/15 07:49:22;;;;;;;81.43;54.15;;;20.10;58.50;;;;;;4926280;28;89984;-75
2021/12/15 07:51:48;;;;;;;81.75;54.58;;;20.20;58.60;;;;;;4909962;28;92224;-76
2021/12/15 07:54:16;;;;;;;82.20;53.78;;;20.20;58.50;;;;;;4909962;28;91571;-77
2021/12/15 07:56:42;;;;;;;85.93;54.63;;;20.20;58.50;;;;;;4916671;28;89293;-76
2021/12/15 07:59:08;;;;;;;84.57;55.28;;;20.30;58.00;;;;;;4913790;28;90732;-76
2021/12/15 08:01:34;;;;;;;87.03;55.40;;;20.50;57.40;;;;;;4911878;28;89999;-75
2021/12/15 08:04:00;;;;;;;81.47;55.53;;;20.60;56.80;;;;;;4908035;28;91963;-76
2021/12/15 08:06:28;;;;;;;85.30;55.78;;;20.70;56.60;;;;;;4917734;28;90019;-76
2021/12/15 08:08:55;;;;;;;86.95;55.75;;;20.70;56.20;;;;;;4919558;28;90032;-77
2021/12/15 08:11:20;;;;;;;86.68;56.20;;;20.70;56.10;;;;;;4914688;28;90943;-77
2021/12/15 08:13:46;;;;;;;89.60;56.55;;;20.60;56.00;;;;;;4929199;28;89971;-77
2021/12/15 08:16:14;;;;;;;84.55;56.25;;;20.60;56.20;;;;;;4913209;28;90516;-77
2021/12/15 08:18:41;;;;;;;83.50;56.22;;;20.60;56.10;;;;;;4918566;28;90342;-76
2021/12/15 08:21:07;;;;;;;84.63;56.63;;;20.60;56.10;;;;;;4926577;28;88978;-76
2021/12/15 08:23:33;;;;;;;83.18;56.60;;;20.60;56.00;;;;;;4928019;28;91223;-76
2021/12/15 08:25:59;;;;;;;85.05;56.63;;;20.60;56.00;;;;;;4927082;28;90053;-77
2021/12/15 08:28:25;;;;;;;85.97;56.42;;;20.60;56.10;;;;;;4923543;28;91355;-77
2021/12/15 08:30:52;;;;;;;85.72;56.10;;;20.60;56.00;;;;;;4924806;28;90369;-77
2021/12/15 08:33:20;;;;;;;87.60;57.00;;;20.60;56.00;;;;;;4922375;28;91226;-77
2021/12/15 08:35:53;;;;;;;87.80;56.58;;;20.60;56.00;;;;;;4923086;28;90549;-77
2021/12/15 08:38:20;;;;;;;85.07;56.58;;;20.60;55.90;;;;;;4929358;28;90443;-76
2021/12/15 08:40:47;;;;;;;82.75;56.47;;;20.60;55.60;;;;;;4934101;28;89818;-78
2021/12/15 08:43:14;;;;;;;83.75;56.28;;;20.70;55.70;;;;;;4924967;28;91848;-79
2021/12/15 08:45:46;;;;;;;84.63;57.03;;;20.70;55.60;;;;;;4922119;28;90075;-77
2021/12/15 08:48:12;;;;;;;84.53;56.20;;;20.70;55.70;;;;;;4925905;28;89806;-77
2021/12/15 08:50:40;;;;;;;84.88;56.08;;;20.70;55.90;;;;;;4927512;28;92445;-77
2021/12/15 08:53:10;;;;;;;83.78;55.83;;;20.70;55.50;;;;;;4921910;28;90702;-78
2021/12/15 08:55:40;;;;;;;82.38;56.22;;;20.70;55.30;;;;;;4924750;28;91092;-78
2021/12/15 08:58:07;;;;;;;83.57;56.47;;;20.70;55.10;;;;;;4918734;28;90172;-78
2021/12/15 09:00:34;;;;;;;83.10;55.80;;;20.70;54.90;;;;;;4917845;28;92189;-78
2021/12/15 09:02:59;;;;;;;83.32;55.78;;;20.70;55.20;;;;;;4905286;28;92363;-77
2021/12/15 09:05:26;;;;;;;82.28;56.38;;;20.70;55.00;;;;;;4916783;28;90625;-78
2021/12/15 09:07:56;;;;;;;82.88;56.08;;;20.70;55.20;;;;;;4910861;28;91268;-79
2021/12/15 09:10:23;;;;;;;85.07;55.95;;;20.70;55.20;;;;;;4911230;28;91320;-77
2021/12/15 09:12:49;;;;;;;85.65;56.38;;;20.70;55.20;;;;;;4924925;28;91866;-78
2021/12/15 09:15:16;;;;;;;82.25;56.30;;;20.60;55.40;;;;;;4920462;28;90717;-78
2021/12/15 09:17:42;;;;;;;83.10;56.17;;;20.60;55.40;;;;;;4924191;28;91009;-78
2021/12/15 09:20:11;;;;;;;84.40;56.00;;;20.60;55.20;;;;;;4929138;28;90532;-78
2021/12/15 09:22:38;;;;;;;81.95;55.90;;;20.60;55.10;;;;;;4937095;28;91294;-79
2021/12/15 09:25:09;;;;;;;81.63;55.88;;;20.60;55.10;;;;;;4935346;28;90932;-77
2021/12/15 09:27:35;;;;;;;82.50;55.72;;;20.60;55.20;;;;;;4935310;28;89921;-77
2021/12/15 09:30:07;;;;;;;84.20;56.33;;;20.60;55.40;;;;;;4936487;28;92209;-78
2021/12/15 09:32:32;;;;;;;84.50;56.30;;;20.60;55.60;;;;;;4931923;28;90080;-78
2021/12/15 09:34:58;;;;;;;83.70;55.85;;;20.60;55.40;;;;;;4933866;28;91117;-77
2021/12/15 09:37:25;;;;;;;83.78;55.65;;;20.60;56.00;;;;;;4932236;28;89822;-79
2021/12/15 09:39:51;;;;;;;82.53;55.63;;;20.60;55.40;;;;;;4936717;28;90345;-79
2021/12/15 09:42:20;;;;;;;85.72;56.35;;;20.60;55.40;;;;;;4933770;28;91058;-79
2021/12/15 09:44:49;;;;;;;84.32;55.78;;;20.60;55.40;;;;;;4938767;28;89953;-79
2021/12/15 09:47:36;;;;;;;83.43;55.70;;;20.60;55.20;;;;;;4929833;28;90374;-77
2021/12/15 10:03:55;;;;;;;83.22;56.30;;;20.60;54.80;;;;;;4934323;28;92095;-78
2021/12/15 10:06:29;;;;;;;81.47;55.83;;;20.60;54.50;;;;;;4931769;28;90155;-78
2021/12/15 10:11:56;;;;;;;84.95;56.50;;;20.50;54.70;;;;;;4926208;28;90274;-78
2021/12/15 10:17:33;;;;;;;80.57;55.33;;;20.50;55.00;;;;;;4922878;28;91711;-78
2021/12/15 10:20:03;;;;;;;81.45;55.65;;;20.50;55.30;;;;;;4922506;28;91318;-78
2021/12/15 10:22:44;;;;;;;83.35;55.85;;;20.50;55.10;;;;;;4927612;28;90654;-80
2021/12/15 10:25:20;;;;;;;81.57;55.40;;;20.50;55.20;;;;;;4946555;28;90655;-78
2021/12/15 10:27:53;;;;;;;81.53;54.75;;;20.50;55.20;;;;;;4938119;28;89712;-79
2021/12/15 10:30:34;;;;;;;81.93;54.88;;;20.50;55.20;;;;;;4934163;28;90570;-78
2021/12/15 10:33:04;;;;;;;80.68;54.85;;;20.50;55.10;;;;;;4937697;28;90872;-78
2021/12/15 10:35:35;;;;;;;80.38;54.53;;;20.40;55.10;;;;;;4912444;28;93033;-78
2021/12/15 10:38:28;;;;;;;83.18;54.42;;;20.50;55.00;;;;;;4910965;28;99453;-78
2021/12/15 10:41:08;;;;;;;80.72;54.75;;;20.50;55.10;;;;;;4922478;28;90892;-78
2021/12/15 10:44:05;;;;;;;81.50;55.20;;;20.50;55.10;;;;;;4913260;28;91562;-77
2021/12/15 10:46:38;;;;;;;79.65;54.47;;;20.50;55.20;;;;;;4904973;28;92089;-78
2021/12/15 10:49:19;;;;;;;80.57;54.55;;;20.50;55.40;;;;;;4895108;28;90986;-79
2021/12/15 10:51:57;;;;;;;83.00;55.35;;;20.50;55.40;;;;;;4911577;28;90955;-77
2021/12/15 10:54:32;;;;;;;81.47;54.83;;;20.50;55.10;;;;;;4918474;28;89587;-77
2021/12/15 10:57:03;;;;;;;83.82;55.05;;;20.50;54.90;;;;;;4915162;28;91826;-78
2021/12/15 10:59:31;;;;;;;;;;;20.50;55.30;;;;;;4907525;28;90485;-77
2021/12/15 11:02:01;;;;;;;80.85;54.55;;;20.50;55.30;;;;;;4911420;28;90555;-78
2021/12/15 11:04:51;;;;;;;80.63;54.58;;;20.50;55.50;;;;;;4918117;28;91221;-79
2021/12/15 11:07:22;;;;;;;81.70;54.47;;;20.50;55.40;;;;;;4904523;28;93109;-78
2021/12/15 11:09:59;;;;;;;80.53;54.70;;;20.50;55.30;;;;;;4901127;28;91520;-78
2021/12/15 11:12:30;;;;;;;82.60;54.88;;;20.50;55.30;;;;;;4905719;28;90503;-78
2021/12/15 11:15:05;;;;;;;86.20;55.75;;;20.40;55.30;;;;;;4910310;28;90746;-79
2021/12/15 11:17:35;;;;;;;88.20;55.55;;;20.40;55.20;;;;;;4909246;28;90008;-78
2021/12/15 11:20:17;;;;;;;85.57;56.28;;;20.40;55.30;;;;;;4887672;28;91056;-79
2021/12/15 11:22:51;;;;;;;86.25;56.28;;;20.50;55.30;;;;;;4888804;28;93521;-79
2021/12/15 11:25:35;;;;;;;90.60;56.42;;;20.50;55.30;;;;;;4908202;28;92501;-78
2021/12/15 11:28:04;;;;;;;86.32;55.85;;;20.50;55.30;;;;;;4892151;28;92218;-79
2021/12/15 11:30:48;;;;;;;87.55;55.55;;;20.50;55.30;;;;;;4905922;28;90950;-78
2021/12/15 11:33:18;;;;;;;87.00;55.92;;;20.40;55.30;;;;;;4908846;28;90213;-78
2021/12/15 11:35:50;;;;;;;90.80;56.53;;;20.40;55.50;;;;;;4888937;28;90829;-78
2021/12/15 11:38:27;;;;;;;89.68;56.00;;;20.50;56.00;;;;;;4902520;28;89824;-79
2021/12/15 11:40:56;;;;;;;86.20;56.20;;;20.40;56.00;;;;;;4904480;28;90895;-78
2021/12/15 11:43:30;;;;;;;88.93;56.38;;;20.40;56.20;;;;;;4908364;28;90344;-78
2021/12/15 11:45:57;;;;;;;86.13;56.47;;;20.50;56.30;;;;;;4904830;28;90381;-77
2021/12/15 11:48:29;;;;;;;86.18;56.00;;;20.50;56.30;;;;;;4901412;28;93080;-78
2021/12/15 11:51:00;;;;;;;89.93;56.67;;;20.50;57.20;;;;;;4900687;28;91060;-78
2021/12/15 11:53:36;;;;;;;85.15;55.72;;;20.50;57.30;;;;;;4899844;28;91294;-77
2021/12/15 11:56:12;;;;;;;86.88;56.10;;;20.60;56.70;;;;;;4904295;28;93321;-77
2021/12/15 11:58:40;;;;;;;88.32;55.28;;;20.60;56.80;;;;;;4911923;28;95064;-75
2021/12/15 12:01:05;;;;;;;89.35;55.55;;;20.60;56.80;;;;;;4891833;28;94849;-77
2021/12/15 12:03:31;;;;;;;86.78;55.95;;;20.50;56.90;;;;;;4916909;28;90856;-76
2021/12/15 12:05:57;;;;;;;84.35;55.75;;;20.60;57.30;;;;;;4914525;28;91572;-76
2021/12/15 12:08:23;;;;;;;82.63;55.45;;;20.60;57.30;;;;;;4922120;28;90168;-76
2021/12/15 12:10:51;;;;;;;84.32;55.17;;;20.60;57.30;;;;;;4922152;28;89767;-76
2021/12/15 12:13:26;;;;;;;84.60;55.42;;;20.50;57.80;;;;;;4913131;28;92153;-75
2021/12/15 12:15:58;;;;;;;83.97;55.05;;;20.50;57.20;;;;;;4906956;28;90794;-75
2021/12/15 12:18:27;;;;;;;83.90;55.20;;;20.50;57.40;;;;;;4925457;28;93453;-76
2021/12/15 12:21:01;;;;;;;82.78;55.13;;;20.50;57.50;;;;;;4935749;28;89695;-76
2021/12/15 12:23:29;;;;;;;84.57;55.42;;;20.50;57.40;;;;;;4928466;28;90100;-76
2021/12/15 12:25:58;;;;;;;82.05;55.00;;;20.50;57.20;;;;;;4932431;28;91248;-75
2021/12/15 12:28:30;;;;;;;82.45;55.40;;;20.50;57.20;;;;;;4932942;28;92003;-76
2021/12/15 12:31:00;;;;;;;82.93;54.83;;;20.50;57.00;;;;;;4933706;28;90320;-75
2021/12/15 12:33:28;;;;;;;83.70;54.85;;;20.50;56.80;;;;;;4935150;28;89489;-76
2021/12/15 12:36:11;;;;;;;82.88;54.70;;;20.50;56.90;;;;;;4936125;28;89096;-76
2021/12/15 12:38:40;;;;;;;85.13;55.40;;;20.40;56.80;;;;;;4929098;28;89942;-76
2021/12/15 12:41:14;;;;;;;86.18;54.20;;;20.40;56.80;;;;;;4926815;28;95094;-76
2021/12/15 12:43:42;;;;;;;85.85;54.35;;;20.40;56.80;;;;;;4935164;28;90612;-76
2021/12/15 12:46:23;;;;;;;82.63;53.90;;;20.40;56.80;;;;;;4935994;28;90319;-76
2021/12/15 13:00:19;;;;;;;87.43;54.38;;;20.40;57.50;;;;;;4923335;28;91098;-76
2021/12/15 13:02:51;;;;;;;82.53;54.03;;;20.40;57.50;;;;;;4916193;28;88847;-76
2021/12/15 13:05:48;;;;;;;83.50;54.00;;;20.40;57.60;;;;;;4934610;28;89584;-76
2021/12/15 13:08:40;;;;;;;82.47;54.17;;;20.40;57.50;;;;;;4928414;28;91125;-76
2021/12/15 13:11:36;;;;;;;81.72;54.08;;;20.40;57.70;;;;;;4906647;28;93106;-77
2021/12/15 13:14:09;;;;;;;82.15;53.95;;;20.40;57.70;;;;;;4916229;28;94948;-76
2021/12/15 13:16:58;;;;;;;81.95;53.92;;;20.50;57.70;;;;;;4917913;28;91522;-77
2021/12/15 13:19:31;;;;;;;80.57;53.97;;;20.40;57.60;;;;;;4932979;28;91196;-76
2021/12/15 13:30:47;;;;;;;81.72;54.35;;;20.40;57.30;;;;;;4930214;28;90531;-76
2021/12/15 13:33:28;;;;;;;82.30;54.15;;;20.40;57.20;;;;;;4922012;28;91065;-76
2021/12/15 13:36:04;;;;;;;81.65;53.70;;;20.40;57.00;;;;;;4928345;28;90780;-75
2021/12/15 13:38:32;;;;;;;80.30;54.22;;;20.40;56.80;;;;;;4928522;28;91996;-75
2021/12/15 13:41:37;;;;;;;81.00;53.67;;;20.40;56.80;;;;;;4924661;28;90390;-75
2021/12/15 13:44:40;;;;;;;79.35;53.38;;;20.30;56.60;;;;;;4921807;28;90928;-76
2021/12/15 13:47:09;;;;;;;79.72;53.33;;;20.40;57.00;;;;;;4910336;28;90256;-77
2021/12/15 13:49:45;;;;;;;83.43;53.78;;;20.40;57.20;;;;;;4913731;28;95101;-76
2021/12/15 13:52:31;;;;;;;82.78;53.88;;;20.40;57.50;;;;;;4919251;28;92796;-77
2021/12/15 13:54:58;;;;;;;84.78;53.67;;;20.40;57.50;;;;;;4917562;28;91311;-77
2021/12/15 13:57:32;;;;;;;80.53;54.25;;;20.40;57.70;;;;;;4929829;28;89820;-77
2021/12/15 14:00:19;;;;;;;79.38;54.13;;;20.40;57.60;;;;;;4918389;28;89674;-77
2021/12/15 14:03:20;;;;;;;78.35;53.50;;;20.40;57.50;;;;;;4939809;28;92132;-77
2021/12/15 14:05:48;;;;;;;79.15;53.67;;;20.40;57.70;;;;;;4922053;28;91565;-77
2021/12/15 14:08:43;;;;;;;79.32;53.35;;;20.40;57.40;;;;;;4904586;28;91885;-77
2021/12/15 14:11:32;;;;;;;80.57;53.38;;;20.40;57.60;;;;;;4920542;28;92005;-78
2021/12/15 14:14:22;;;;;;;80.40;53.75;;;20.40;57.60;;;;;;4915898;28;90711;-78
2021/12/15 14:16:54;;;;;;;77.45;52.90;;;20.40;58.00;;;;;;4910188;28;91700;-78